Time;durP1;ratioP1;P1;durP2;ratioP2;P2;SDS_P1;SDS_P2;PMS_P1;PMS_P2;Temp;Humidity;BMP_temperature;BMP_pressure;BME280_temperature;BME280_humidity;BME280_pressure;Samples;Min_cycle;Max_cycle;Signal;HPM_P1;HPM_P2
2022/11/15 00:02:07;;;;;;;;;;;;;;;3.72;86.64;100411.59;1724893;83;20231;-86
2022/11/15 00:04:53;;;;;;;;;;;;;;;3.71;86.68;100403.33;1696293;84;20198;-87
2022/11/15 00:07:38;;;;;;;;;;;;;;;3.71;86.79;100401.58;1696411;84;20390;-86
2022/11/15 00:10:22;;;;;;;;;;;;;;;3.72;86.81;100397.27;1696603;84;20210;-83
2022/11/15 00:13:09;;;;;;;;;;;;;;;3.72;86.68;100394.67;1706223;83;21257;-83
2022/11/15 00:15:56;;;;;;;;;;;;;;;3.72;86.74;100389.02;1725598;83;20247;-82
2022/11/15 00:18:41;;;;;;;;;;;;;;;3.76;86.98;100389.05;1725380;83;20240;-87
2022/11/15 00:21:27;;;;;;;;;;;;;;;3.80;86.91;100386.89;1725158;82;21036;-85
2022/11/15 00:24:11;;;;;;;;;;;;;;;3.81;87.01;100381.70;1725060;83;20220;-84
2022/11/15 00:26:56;;;;;;;;;;;;;;;3.84;87.36;100373.06;1725503;83;21077;-85
2022/11/15 00:29:43;;;;;;;;;;;;;;;3.83;87.27;100368.70;1724984;83;20247;-85
2022/11/15 00:32:32;;;;;;;;;;;;;;;3.81;87.33;100364.78;1725148;83;20216;-78
2022/11/15 00:35:18;;;;;;;;;;;;;;;3.82;87.36;100363.94;1725343;83;20550;-85
2022/11/15 00:38:03;;;;;;;;;;;;;;;3.82;87.53;100363.07;1725655;83;20239;-84
2022/11/15 00:40:47;;;;;;;;;;;;;;;3.82;87.61;100351.36;1725476;83;21263;-85
2022/11/15 00:43:34;;;;;;;;;;;;;;;3.82;87.82;100352.66;1722571;80;20209;-83
2022/11/15 00:46:19;;;;;;;;;;;;;;;3.83;88.00;100347.88;1725328;83;20232;-87
2022/11/15 00:49:04;;;;;;;;;;;;;;;3.85;87.97;100348.75;1724736;83;20164;-85
2022/11/15 00:51:49;;;;;;;;;;;;;;;3.87;87.95;100343.14;1725524;83;20232;-87
2022/11/15 00:54:34;;;;;;;;;;;;;;;3.89;88.05;100338.81;1725791;83;21856;-86
2022/11/15 00:57:19;;;;;;;;;;;;;;;3.86;87.95;100337.48;1725465;83;20553;-85
2022/11/15 01:00:05;;;;;;;;;;;;;;;3.86;87.89;100327.94;1722982;83;20215;-83
2022/11/15 01:02:50;;;;;;;;;;;;;;;3.88;87.89;100323.63;1724802;83;20221;-84
2022/11/15 01:05:37;;;;;;;;;;;;;;;3.87;87.81;100328.83;1725521;83;20188;-83
2022/11/15 01:08:22;;;;;;;;;;;;;;;3.87;87.75;100330.98;1725661;83;21149;-81
2022/11/15 01:11:09;;;;;;;;;;;;;;;3.87;87.85;100335.34;1724998;83;20227;-86
2022/11/15 01:13:55;;;;;;;;;;;;;;;3.88;87.91;100335.75;1725221;83;20200;-84
2022/11/15 01:16:40;;;;;;;;;;;;;;;3.92;87.73;100328.42;1725624;83;20207;-84
2022/11/15 01:19:25;;;;;;;;;;;;;;;3.92;87.70;100321.91;1725455;83;20197;-87
2022/11/15 01:22:10;;;;;;;;;;;;;;;3.96;87.72;100319.75;1725205;83;21127;-81
2022/11/15 01:24:55;;;;;;;;;;;;;;;3.97;87.80;100314.99;1724536;83;20224;-85
2022/11/15 01:27:40;;;;;;;;;;;;;;;3.99;87.68;100314.56;1725449;83;20146;-84
2022/11/15 01:30:25;;;;;;;;;;;;;;;4.02;87.50;100315.02;1725200;83;20192;-83
2022/11/15 01:33:09;;;;;;;;;;;;;;;4.03;87.38;100307.19;1725888;83;20187;-85
2022/11/15 01:35:54;;;;;;;;;;;;;;;4.06;87.42;100307.20;1725331;83;21161;-83
2022/11/15 01:38:39;;;;;;;;;;;;;;;4.06;87.43;100299.40;1725584;83;20196;-87
2022/11/15 01:41:27;;;;;;;;;;;;;;;4.06;87.27;100300.70;1725473;83;20508;-85
2022/11/15 01:44:40;;;;;;;;;;;;;;;4.05;87.11;100292.47;1722341;83;20216;-85
2022/11/15 01:47:28;;;;;;;;;;;;;;;4.06;86.84;100294.19;1725587;83;20203;-85
2022/11/15 01:50:16;;;;;;;;;;;;;;;4.05;86.71;100297.67;1725147;83;21641;-85
2022/11/15 01:53:02;;;;;;;;;;;;;;;4.06;86.75;100294.19;1725268;83;20151;-88
2022/11/15 01:55:47;;;;;;;;;;;;;;;4.05;86.72;100291.16;1725816;83;20204;-86
2022/11/15 01:58:32;;;;;;;;;;;;;;;4.05;86.76;100285.06;1725460;83;20126;-87
2022/11/15 02:01:16;;;;;;;;;;;;;;;4.05;86.83;100278.55;1725691;83;20196;-87
2022/11/15 02:04:04;;;;;;;;;;;;;;;4.03;86.74;100275.94;1724939;83;21081;-86
2022/11/15 02:06:50;;;;;;;;;;;;;;;3.98;86.82;100269.84;1725587;80;20185;-84
2022/11/15 02:09:36;;;;;;;;;;;;;;;3.91;86.99;100263.73;1725512;83;20185;-86
2022/11/15 02:12:22;;;;;;;;;;;;;;;3.89;87.08;100260.27;1725126;83;20213;-84
2022/11/15 02:15:09;;;;;;;;;;;;;;;3.90;87.15;100260.72;1721729;80;20141;-87
2022/11/15 02:18:06;;;;;;;;;;;;;;;3.91;87.16;100251.16;1726277;83;21173;-84
2022/11/15 02:20:54;;;;;;;;;;;;;;;3.91;87.16;100254.63;1724995;83;20157;-88
2022/11/15 02:24:03;;;;;;;;;;;;;;;3.90;87.34;100254.20;1718827;83;20146;-84
2022/11/15 02:27:24;;;;;;;;;;;;;;;3.89;87.32;100246.39;1718778;83;20240;-86
2022/11/15 02:30:17;;;;;;;;;;;;;;;3.91;87.37;100250.72;1718902;83;20205;-81
2022/11/15 02:33:22;;;;;;;;;;;;;;;3.90;87.40;100250.30;1718955;83;21232;-86
2022/11/15 02:36:20;;;;;;;;;;;;;;;3.89;87.35;100248.99;1688858;85;20537;-84
2022/11/15 02:39:23;;;;;;;;;;;;;;;3.86;87.53;100245.07;1688642;85;20955;-87
2022/11/15 02:45:35;;;;;;;;;;;;;;;3.86;87.58;100245.92;1714497;83;20232;-84
2022/11/15 02:48:19;;;;;;;;;;;;;;;3.83;87.77;100248.95;1719029;83;21765;-88
2022/11/15 02:51:04;;;;;;;;;;;;;;;3.82;87.92;100240.73;1718723;83;20196;-82
2022/11/15 02:53:49;;;;;;;;;;;;;;;3.76;87.79;100241.98;1719089;83;20927;-83
2022/11/15 02:56:33;;;;;;;;;;;;;;;3.70;88.17;100234.59;1690526;85;20218;-83
2022/11/15 02:59:25;;;;;;;;;;;;;;;3.68;88.43;100236.73;1699110;83;20231;-85
2022/11/15 03:02:15;;;;;;;;;;;;;;;3.60;88.80;100228.91;1718873;83;21166;-83
2022/11/15 03:05:16;;;;;;;;;;;;;;;3.56;89.14;100229.73;1716544;83;20523;-85
2022/11/15 03:08:08;;;;;;;;;;;;;;;3.56;89.30;100229.73;1719059;83;20223;-82
2022/11/15 03:11:03;;;;;;;;;;;;;;;3.59;89.40;100219.34;1718949;83;20514;-87
2022/11/15 03:14:05;;;;;;;;;;;;;;;3.55;89.60;100217.61;1719236;83;20224;-85
2022/11/15 03:17:04;;;;;;;;;;;;;;;3.52;89.90;100219.74;1716641;83;21268;-84
2022/11/15 03:19:52;;;;;;;;;;;;;;;3.48;89.96;100218.00;1718754;83;20228;-81
2022/11/15 03:22:38;;;;;;;;;;;;;;;3.44;90.19;100207.13;1707471;83;20256;-87
2022/11/15 03:25:24;;;;;;;;;;;;;;;3.40;90.28;100200.17;1691393;84;20277;-83
2022/11/15 03:28:09;;;;;;;;;;;;;;;3.38;90.44;100201.02;1691008;84;20174;-84
2022/11/15 03:30:54;;;;;;;;;;;;;;;3.37;90.77;100194.09;1690924;84;21517;-84
2022/11/15 03:33:39;;;;;;;;;;;;;;;3.38;90.79;100188.01;1691058;84;20258;-84
2022/11/15 03:36:25;;;;;;;;;;;;;;;3.34;90.81;100190.59;1674509;84;20257;-84
2022/11/15 03:39:09;;;;;;;;;;;;;;;3.31;90.97;100183.20;1691329;84;20233;-85
2022/11/15 03:42:19;;;;;;;;;;;;;;;3.30;91.13;100182.78;1670802;84;20199;-86
2022/11/15 03:45:07;;;;;;;;;;;;;;;3.30;91.13;100184.94;1690600;84;21510;-85
2022/11/15 03:47:58;;;;;;;;;;;;;;;3.31;91.07;100180.19;1690571;84;20345;-80
2022/11/15 03:50:43;;;;;;;;;;;;;;;3.30;91.03;100173.23;1673793;85;20452;-81
2022/11/15 03:53:30;;;;;;;;;;;;;;;3.27;90.98;100170.61;1691311;85;20226;-88
2022/11/15 03:56:14;;;;;;;;;;;;;;;3.19;90.98;100169.70;1691391;84;20269;-80
2022/11/15 03:58:59;;;;;;;;;;;;;;;3.15;91.19;100180.95;1690967;84;21096;-83
2022/11/15 04:01:44;;;;;;;;;;;;;;;3.10;91.42;100172.26;1691073;85;20648;-87
2022/11/15 04:04:29;;;;;;;;;;;;;;;2.96;91.96;100163.94;1691675;84;20238;-83
2022/11/15 04:07:15;;;;;;;;;;;;;;;2.87;92.76;100160.40;1691181;84;20989;-83
2022/11/15 04:10:03;;;;;;;;;;;;;;;2.80;93.33;100155.59;1691478;84;20237;-88
2022/11/15 04:12:48;;;;;;;;;;;;;;;2.78;93.55;100152.11;1691250;84;21332;-83
2022/11/15 04:15:33;;;;;;;;;;;;;;;2.81;93.79;100153.84;1691146;84;20180;-86
2022/11/15 04:18:17;;;;;;;;;;;;;;;2.82;94.05;100146.06;1690546;84;20302;-84
2022/11/15 04:24:12;;;;;;;;;;;;;;;2.87;94.38;100143.50;1691507;83;20203;-85
2022/11/15 04:26:57;;;;;;;;;;;;;;;2.84;94.56;100139.17;1690610;84;21225;-86
2022/11/15 04:29:42;;;;;;;;;;;;;;;2.85;94.71;100147.83;1691331;84;20249;-84
2022/11/15 04:32:27;;;;;;;;;;;;;;;2.84;94.82;100139.17;1691740;84;20250;-83
2022/11/15 04:35:12;;;;;;;;;;;;;;;2.79;94.96;100131.74;1691369;84;20568;-88
2022/11/15 04:37:56;;;;;;;;;;;;;;;2.77;95.14;100134.77;1689408;84;20237;-87
2022/11/15 04:40:41;;;;;;;;;;;;;;;2.80;95.23;100129.59;1691323;84;21190;-79
2022/11/15 04:43:26;;;;;;;;;;;;;;;2.83;95.06;100124.42;1691795;84;20214;-86
2022/11/15 04:46:11;;;;;;;;;;;;;;;2.85;95.03;100130.50;1691283;84;20245;-87
2022/11/15 04:48:57;;;;;;;;;;;;;;;2.83;95.00;100131.36;1688849;84;20734;-86
2022/11/15 04:51:42;;;;;;;;;;;;;;;2.84;95.12;100129.19;1691300;84;20469;-81
2022/11/15 04:54:27;;;;;;;;;;;;;;;2.85;95.21;100117.50;1691329;84;21151;-84
2022/11/15 04:57:12;;;;;;;;;;;;;;;2.85;95.21;100118.80;1691246;84;20360;-85
2022/11/15 04:59:56;;;;;;;;;;;;;;;2.82;95.28;100113.58;1689781;84;20277;-87
2022/11/15 05:05:45;;;;;;;;;;;;;;;2.82;95.24;100114.87;1691685;84;20254;-86
2022/11/15 05:08:30;;;;;;;;;;;;;;;2.82;95.10;100108.37;1691307;84;21236;-88
2022/11/15 05:11:15;;;;;;;;;;;;;;;2.85;94.82;100110.14;1689035;84;20221;-87
2022/11/15 05:14:00;;;;;;;;;;;;;;;2.82;94.45;100112.28;1691605;84;20248;-87
2022/11/15 05:16:46;;;;;;;;;;;;;;;2.79;94.36;100114.85;1691106;84;20400;-85
2022/11/15 05:19:31;;;;;;;;;;;;;;;2.74;94.43;100111.36;1690965;84;20545;-80
2022/11/15 05:22:17;;;;;;;;;;;;;;;2.67;94.87;100109.58;1688916;83;21185;-80
2022/11/15 05:25:03;;;;;;;;;;;;;;;2.64;95.13;100105.25;1691530;84;20187;-87
2022/11/15 05:27:48;;;;;;;;;;;;;;;2.68;95.26;100095.75;1691374;84;20191;-84
2022/11/15 05:30:33;;;;;;;;;;;;;;;2.66;95.43;100090.98;1689487;84;20246;-81
2022/11/15 05:33:17;;;;;;;;;;;;;;;2.69;95.43;100090.97;1691121;84;20249;-82
2022/11/15 05:36:05;;;;;;;;;;;;;;;2.72;95.35;100092.30;1691328;84;22028;-88
2022/11/15 05:38:50;;;;;;;;;;;;;;;2.74;94.94;100085.37;1691232;84;20190;-85
2022/11/15 05:41:38;;;;;;;;;;;;;;;2.75;94.82;100084.52;1691041;84;20289;-85
2022/11/15 05:44:23;;;;;;;;;;;;;;;2.75;94.53;100087.13;1689823;84;20195;-82
2022/11/15 05:47:09;;;;;;;;;;;;;;;2.75;94.46;100093.17;1687242;84;20567;-83
2022/11/15 05:49:54;;;;;;;;;;;;;;;2.74;94.42;100088.86;1691417;84;21077;-86
2022/11/15 05:52:39;;;;;;;;;;;;;;;2.71;94.40;100085.38;1691166;84;20195;-85
2022/11/15 05:55:25;;;;;;;;;;;;;;;2.67;94.58;100075.80;1689634;84;20198;-83
2022/11/15 05:58:10;;;;;;;;;;;;;;;2.66;94.82;100087.94;1663356;85;20236;-83
2022/11/15 06:00:55;;;;;;;;;;;;;;;2.67;94.83;100081.00;1663588;85;20232;-84
2022/11/15 06:03:39;;;;;;;;;;;;;;;2.69;94.94;100077.98;1663668;86;21221;-88
2022/11/15 06:06:24;;;;;;;;;;;;;;;2.69;94.95;100076.27;1670728;84;20213;-83
2022/11/15 06:09:10;;;;;;;;;;;;;;;2.71;95.17;100074.98;1667603;84;20214;-83
2022/11/15 06:11:55;;;;;;;;;;;;;;;2.70;95.28;100074.09;1691722;84;20274;-85
2022/11/15 06:14:39;;;;;;;;;;;;;;;2.71;95.49;100074.98;1691731;84;20300;-89
2022/11/15 06:17:24;;;;;;;;;;;;;;;2.70;95.62;100074.09;1694345;82;21545;-81
2022/11/15 06:20:10;;;;;;;;;;;;;;;2.72;95.90;100067.20;1694631;84;20167;-83
2022/11/15 06:23:00;;;;;;;;;;;;;;;2.71;95.92;100064.15;1697821;82;20241;-86
2022/11/15 06:25:45;;;;;;;;;;;;;;;2.73;96.07;100065.46;1725723;83;20205;-81
2022/11/15 06:28:31;;;;;;;;;;;;;;;2.76;95.89;100060.28;1722653;83;20221;-89
2022/11/15 06:31:16;;;;;;;;;;;;;;;2.80;95.64;100058.13;1720038;83;21946;-86
2022/11/15 06:34:03;;;;;;;;;;;;;;;2.82;95.28;100057.70;1695781;84;20254;-88
2022/11/15 06:36:48;;;;;;;;;;;;;;;2.80;95.24;100049.03;1708715;83;20177;-78
2022/11/15 06:39:34;;;;;;;;;;;;;;;2.80;95.36;100062.03;1723165;83;21067;-82
2022/11/15 06:42:19;;;;;;;;;;;;;;;2.81;95.10;100055.98;1725161;83;20196;-87
2022/11/15 06:45:05;;;;;;;;;;;;;;;2.78;95.41;100056.82;1724613;83;21902;-86
2022/11/15 06:47:51;;;;;;;;;;;;;;;2.75;95.70;100053.34;1696377;84;20124;-83
2022/11/15 06:50:37;;;;;;;;;;;;;;;2.72;96.29;100048.13;1696489;84;20202;-85
2022/11/15 06:53:23;;;;;;;;;;;;;;;2.74;96.78;100056.78;1718456;83;20212;-90
2022/11/15 06:56:09;;;;;;;;;;;;;;;2.76;97.20;100046.00;1723046;83;20251;-83
2022/11/15 06:58:55;;;;;;;;;;;;;;;2.78;97.32;100046.87;1721417;83;20188;-83
2022/11/15 07:01:40;;;;;;;;;;;;;;;2.81;97.17;100048.19;1719092;83;20176;-83
2022/11/15 07:04:25;;;;;;;;;;;;;;;2.82;97.27;100049.91;1717497;81;20509;-83
2022/11/15 07:07:09;;;;;;;;;;;;;;;2.83;97.21;100056.86;1722172;81;20221;-83
2022/11/15 07:09:55;;;;;;;;;;;;;;;2.81;97.05;100052.09;1720182;82;20268;-87
2022/11/15 07:12:40;;;;;;;;;;;;;;;2.81;96.72;100048.19;1715358;83;21161;-84
2022/11/15 07:15:25;;;;;;;;;;;;;;;2.80;96.48;100047.73;1716278;82;20242;-84
2022/11/15 07:18:11;;;;;;;;;;;;;;;2.78;96.64;100045.56;1716947;83;20207;-83
2022/11/15 07:21:02;;;;;;;;;;;;;;;2.76;96.64;100039.06;1716051;83;20218;-86
2022/11/15 07:23:49;;;;;;;;;;;;;;;2.79;96.35;100047.28;1673468;85;20680;-80
2022/11/15 07:26:34;;;;;;;;;;;;;;;2.77;96.15;100035.61;1671527;84;21164;-85
2022/11/15 07:29:19;;;;;;;;;;;;;;;2.74;95.92;100036.00;1670509;85;20484;-83
2022/11/15 07:32:04;;;;;;;;;;;;;;;2.72;95.34;100032.53;1671132;85;20213;-84
2022/11/15 07:34:51;;;;;;;;;;;;;;;2.72;95.26;100027.33;1682053;85;20895;-84
2022/11/15 07:37:36;;;;;;;;;;;;;;;2.73;95.29;100022.15;1680647;85;20253;-82
2022/11/15 07:40:22;;;;;;;;;;;;;;;2.75;95.23;100019.56;1686087;83;20258;-83
2022/11/15 07:43:07;;;;;;;;;;;;;;;2.74;95.42;100020.41;1682727;83;20204;-83
2022/11/15 07:45:52;;;;;;;;;;;;;;;2.74;95.61;100021.70;1681587;85;20238;-79
2022/11/15 07:48:39;;;;;;;;;;;;;;;2.67;95.31;100019.94;1681803;84;20939;-83
2022/11/15 07:51:24;;;;;;;;;;;;;;;2.62;95.38;100018.61;1678642;85;20215;-81
2022/11/15 07:54:09;;;;;;;;;;;;;;;2.56;95.11;100014.27;1680680;85;21840;-79
2022/11/15 07:56:53;;;;;;;;;;;;;;;2.55;94.95;100012.51;1677903;85;20566;-82
2022/11/15 07:59:39;;;;;;;;;;;;;;;2.52;95.02;100011.22;1679533;85;20197;-81
2022/11/15 08:02:25;;;;;;;;;;;;;;;2.48;94.09;100003.39;1688923;83;20195;-83
2022/11/15 08:05:10;;;;;;;;;;;;;;;2.45;93.21;100008.12;1680905;85;20254;-83
2022/11/15 08:07:56;;;;;;;;;;;;;;;2.40;93.43;100007.23;1679652;85;21774;-85
2022/11/15 08:10:42;;;;;;;;;;;;;;;2.37;93.45;99999.41;1681183;84;20230;-82
2022/11/15 08:13:27;;;;;;;;;;;;;;;2.36;93.67;100009.38;1681935;85;20210;-81
2022/11/15 08:16:12;;;;;;;;;;;;;;;2.37;93.58;100005.91;1683012;84;20235;-83
2022/11/15 08:18:57;;;;;;;;;;;;;;;2.35;93.60;99989.45;1681952;85;20255;-82
2022/11/15 08:21:42;;;;;;;;;;;;;;;2.31;93.98;99995.50;1682609;85;21362;-82
2022/11/15 08:24:27;;;;;;;;;;;;;;;2.30;94.28;99990.71;1683217;84;20203;-80
2022/11/15 08:27:15;;;;;;;;;;;;;;;2.32;94.69;99983.83;1680309;83;20366;-82
2022/11/15 08:30:02;;;;;;;;;;;;;;;2.33;94.56;99990.73;1657750;85;20185;-79
2022/11/15 08:32:48;;;;;;;;;;;;;;;2.32;94.42;99985.53;1677285;84;20375;-84
2022/11/15 08:35:34;;;;;;;;;;;;;;;2.31;94.42;99986.41;1672020;85;21276;-81
2022/11/15 08:38:18;;;;;;;;;;;;;;;2.31;94.19;99987.70;1673366;85;20220;-82
2022/11/15 08:41:04;;;;;;;;;;;;;;;2.31;94.18;99982.52;1673895;85;20256;-77
2022/11/15 08:43:49;;;;;;;;;;;;;;;2.31;94.45;99981.22;1671619;85;20198;-76
2022/11/15 08:46:34;;;;;;;;;;;;;;;2.31;94.54;99982.08;1671511;85;20212;-79
2022/11/15 08:49:18;;;;;;;;;;;;;;;2.32;94.47;99977.74;1673161;85;21147;-83
2022/11/15 08:52:03;;;;;;;;;;;;;;;2.30;94.61;99977.73;1673749;85;20271;-82
2022/11/15 08:54:48;;;;;;;;;;;;;;;2.30;94.76;99970.37;1672100;85;20224;-83
2022/11/15 08:57:33;;;;;;;;;;;;;;;2.31;94.60;99969.53;1673848;85;20474;-81
2022/11/15 09:00:19;;;;;;;;;;;;;;;2.32;94.60;99963.05;1674943;85;20219;-81
2022/11/15 09:03:06;;;;;;;;;;;;;;;2.31;94.28;99963.04;1671661;85;21109;-78
2022/11/15 09:05:59;;;;;;;;;;;;;;;2.29;93.77;99963.47;1674243;84;20171;-79
2022/11/15 09:08:43;;;;;;;;;;;;;;;2.26;93.40;99956.95;1675900;84;20236;-79
2022/11/15 09:11:28;;;;;;;;;;;;;;;2.23;93.52;99941.77;1671102;85;20264;-81
2022/11/15 09:14:14;;;;;;;;;;;;;;;2.22;93.81;99936.16;1664388;85;20210;-80
2022/11/15 09:16:58;;;;;;;;;;;;;;;2.26;93.97;99927.95;1675390;84;21176;-80
2022/11/15 09:19:45;;;;;;;;;;;;;;;2.31;94.10;99921.49;1675939;84;20487;-80
2022/11/15 09:22:29;;;;;;;;;;;;;;;2.33;94.04;99912.84;1671421;85;20343;-81
2022/11/15 09:25:14;;;;;;;;;;;;;;;2.33;94.04;99909.38;1666795;85;20202;-79
2022/11/15 09:27:59;;;;;;;;;;;;;;;2.38;93.97;99903.78;1681743;85;20159;-80
2022/11/15 09:30:44;;;;;;;;;;;;;;;2.42;94.06;99901.62;1708945;84;21716;-79
2022/11/15 09:33:29;;;;;;;;;;;;;;;2.45;94.18;99900.78;1706156;84;20229;-77
2022/11/15 09:36:14;;;;;;;;;;;;;;;2.47;94.32;99889.55;1715387;82;20175;-75
2022/11/15 09:38:59;;;;;;;;;;;;;;;2.54;94.28;99887.41;1717907;82;20209;-77
2022/11/15 09:42:05;;;;;;;;;;;;;;;2.59;93.84;99879.20;1714312;82;20201;-78
2022/11/15 09:45:00;;;;;;;;;;;;;;;2.57;93.84;99874.44;1714125;82;21223;-78
2022/11/15 09:47:58;;;;;;;;;;;;;;;2.60;93.88;99877.02;1713064;82;20949;-79
2022/11/15 09:50:34;;;;;;;;;;;;;;;2.65;93.96;99864.50;1707681;83;20248;-79
2022/11/15 09:53:01;;;;;;;;;;;;;;;2.68;94.07;99865.81;1705769;83;20236;-79
2022/11/15 09:55:43;;;;;;;;;;;;;;;2.70;94.04;99856.28;1708048;83;20849;-78
2022/11/15 09:58:19;;;;;;;;;;;;;;;2.71;93.99;99854.13;1703348;83;21204;-78
2022/11/15 10:00:48;;;;;;;;;;;;;;;2.74;94.37;99847.61;1707180;83;20209;-78
2022/11/15 10:03:23;;;;;;;;;;;;;;;2.79;94.31;99835.09;1713032;83;20200;-80
